Time;durP1;ratioP1;P1;durP2;ratioP2;P2;SDS_P1;SDS_P2;PMS_P1;PMS_P2;Temp;Humidity;BMP_temperature;BMP_pressure;BME280_temperature;BME280_humidity;BME280_pressure;Samples;Min_cycle;Max_cycle;Signal;HPM_P1;HPM_P2
2023/10/07 00:02:12;;;;;;;0.50;0.50;;;14.20;99.90;;;;;;5001204;28;20450;-81
2023/10/07 00:04:40;;;;;;;0.50;0.40;;;14.20;99.90;;;;;;5016753;28;20461;-80
2023/10/07 00:07:10;;;;;;;0.80;0.60;;;14.20;99.90;;;;;;5017049;28;20454;-80
2023/10/07 00:09:39;;;;;;;0.93;0.93;;;14.20;99.90;;;;;;5008727;28;20966;-80
2023/10/07 00:12:12;;;;;;;0.50;0.40;;;14.20;99.90;;;;;;5009788;28;20442;-80
2023/10/07 00:14:39;;;;;;;0.60;0.60;;;14.20;99.90;;;;;;5017154;28;20452;-79
2023/10/07 00:17:12;;;;;;;0.50;0.40;;;14.20;99.90;;;;;;5017381;28;20445;-80
2023/10/07 00:19:39;;;;;;;5.00;2.10;;;14.20;99.90;;;;;;5017273;28;20481;-80
2023/10/07 00:22:09;;;;;;;0.50;0.40;;;14.20;99.90;;;;;;5013541;28;20478;-81
2023/10/07 00:24:40;;;;;;;0.60;0.50;;;14.20;99.90;;;;;;5005135;28;20500;-81
2023/10/07 00:27:20;;;;;;;0.50;0.40;;;14.20;99.90;;;;;;5008914;28;20446;-80
2023/10/07 00:29:54;;;;;;;0.80;0.50;;;14.20;99.90;;;;;;5008551;28;20438;-80
2023/10/07 00:32:27;;;;;;;0.50;0.40;;;14.20;99.90;;;;;;5003244;28;20474;-80
2023/10/07 00:34:55;;;;;;;0.50;0.40;;;14.20;99.90;;;;;;4997401;28;20453;-81
2023/10/07 00:37:24;;;;;;;0.50;0.40;;;14.20;99.90;;;;;;5010457;28;20450;-81
2023/10/07 00:39:52;;;;;;;0.50;0.40;;;14.20;99.90;;;;;;5008354;28;20485;-80
2023/10/07 00:42:19;;;;;;;0.50;0.40;;;14.20;99.90;;;;;;5003580;28;20497;-81
2023/10/07 00:44:48;;;;;;;0.60;0.50;;;14.20;99.90;;;;;;5013273;28;20457;-81
2023/10/07 00:47:18;;;;;;;0.50;0.40;;;14.20;99.90;;;;;;5011323;28;20546;-82
2023/10/07 00:49:53;;;;;;;0.50;0.40;;;14.20;99.90;;;;;;5013135;28;20458;-80
2023/10/07 00:52:28;;;;;;;0.70;0.67;;;14.20;99.90;;;;;;5010685;28;20481;-81
2023/10/07 00:55:08;;;;;;;0.63;0.63;;;14.10;99.90;;;;;;5003541;28;20447;-81
2023/10/07 00:57:35;;;;;;;0.50;0.40;;;14.10;99.90;;;;;;5010566;28;20811;-80
2023/10/07 01:00:13;;;;;;;0.90;0.70;;;14.20;99.90;;;;;;5003808;28;20482;-81
2023/10/07 01:02:40;;;;;;;0.50;0.40;;;14.10;99.90;;;;;;5011234;28;20819;-81
2023/10/07 01:05:13;;;;;;;0.50;0.50;;;14.20;99.90;;;;;;4995821;28;20439;-80
2023/10/07 01:07:40;;;;;;;1.17;1.07;;;14.10;99.90;;;;;;5012056;28;20453;-80
2023/10/07 01:10:13;;;;;;;0.70;0.70;;;14.10;99.90;;;;;;5015308;28;20500;-80
2023/10/07 01:12:42;;;;;;;0.50;0.40;;;14.10;99.90;;;;;;5015549;28;20477;-81
2023/10/07 01:15:23;;;;;;;0.50;0.40;;;14.00;99.90;;;;;;5015949;28;20443;-78
2023/10/07 01:17:53;;;;;;;3.13;2.93;;;14.00;99.90;;;;;;5015410;28;20481;-80
2023/10/07 01:20:24;;;;;;;1.47;1.13;;;14.00;99.90;;;;;;5015399;28;20480;-83
2023/10/07 01:23:03;;;;;;;0.60;0.60;;;13.90;99.90;;;;;;4998246;28;20471;-81
2023/10/07 01:25:31;;;;;;;0.50;0.40;;;13.90;99.90;;;;;;4995736;28;20442;-82
2023/10/07 01:28:01;;;;;;;1.03;0.70;;;13.90;99.90;;;;;;5005361;28;20462;-81
2023/10/07 01:30:29;;;;;;;0.50;0.40;;;13.90;99.90;;;;;;5007076;28;20480;-80
2023/10/07 01:33:02;;;;;;;0.70;0.60;;;13.80;99.90;;;;;;5014939;28;20985;-81
2023/10/07 01:35:37;;;;;;;0.70;0.70;;;13.80;99.90;;;;;;5007082;28;20446;-81
2023/10/07 01:38:08;;;;;;;0.60;0.60;;;13.80;99.90;;;;;;4995858;28;20474;-80
2023/10/07 01:40:55;;;;;;;0.50;0.50;;;13.80;99.90;;;;;;5002128;28;20480;-80
2023/10/07 01:43:24;;;;;;;0.50;0.47;;;13.80;99.90;;;;;;5008471;28;20515;-81
2023/10/07 01:45:52;;;;;;;1.47;1.37;;;13.80;99.90;;;;;;5014539;28;20443;-81
2023/10/07 01:48:20;;;;;;;0.50;0.40;;;13.90;99.90;;;;;;5003164;28;20550;-81
2023/10/07 01:50:47;;;;;;;0.90;0.80;;;13.80;99.90;;;;;;4997237;28;20447;-81
2023/10/07 01:53:15;;;;;;;0.57;0.53;;;13.80;99.90;;;;;;4999621;28;20501;-80
2023/10/07 01:55:43;;;;;;;0.50;0.40;;;13.80;99.90;;;;;;5007978;28;21051;-81
2023/10/07 01:58:13;;;;;;;0.50;0.40;;;13.90;99.90;;;;;;5004439;28;20879;-81
2023/10/07 02:00:44;;;;;;;0.50;0.40;;;13.80;99.90;;;;;;4996914;28;20475;-81
2023/10/07 02:03:14;;;;;;;0.50;0.40;;;13.90;99.90;;;;;;5007387;28;20508;-81
2023/10/07 02:05:46;;;;;;;1.87;1.70;;;13.90;99.90;;;;;;5000156;28;20462;-80
2023/10/07 02:08:20;;;;;;;9.00;8.20;;;13.90;99.90;;;;;;4996638;28;20506;-81
2023/10/07 02:10:49;;;;;;;0.50;0.50;;;13.90;99.90;;;;;;5012946;28;20445;-81
2023/10/07 02:13:19;;;;;;;0.50;0.40;;;13.90;99.90;;;;;;5007953;28;20486;-81
2023/10/07 02:15:46;;;;;;;1.10;1.10;;;13.90;99.90;;;;;;5007573;28;20454;-81
2023/10/07 02:18:15;;;;;;;1.07;1.07;;;13.90;99.90;;;;;;5012377;28;20811;-80
2023/10/07 02:20:49;;;;;;;1.80;1.27;;;13.90;99.90;;;;;;5003751;28;20505;-81
2023/10/07 02:23:22;;;;;;;0.77;0.67;;;13.90;99.90;;;;;;5003979;28;20510;-81
2023/10/07 02:25:50;;;;;;;0.50;0.40;;;13.90;99.90;;;;;;5003783;28;20940;-80
2023/10/07 02:28:21;;;;;;;0.50;0.40;;;13.90;99.90;;;;;;5015414;28;20538;-81
2023/10/07 02:31:00;;;;;;;0.50;0.40;;;13.90;99.90;;;;;;5015687;28;20976;-81
2023/10/07 02:33:27;;;;;;;2.20;1.47;;;13.90;99.90;;;;;;5015433;28;20477;-81
2023/10/07 02:35:56;;;;;;;0.50;0.47;;;13.90;99.90;;;;;;5014692;28;20821;-81
2023/10/07 02:38:35;;;;;;;2.30;2.20;;;14.00;99.90;;;;;;5015026;28;20439;-81
2023/10/07 02:41:07;;;;;;;0.50;0.40;;;14.00;99.90;;;;;;5013531;28;20488;-81
2023/10/07 02:43:35;;;;;;;0.50;0.40;;;13.90;99.90;;;;;;5009810;28;21041;-80
2023/10/07 02:46:05;;;;;;;0.50;0.50;;;13.90;99.90;;;;;;5015092;28;20449;-81
2023/10/07 02:48:35;;;;;;;0.63;0.63;;;13.90;99.90;;;;;;5015793;28;20447;-81
2023/10/07 02:51:09;;;;;;;0.60;0.60;;;13.90;99.90;;;;;;5015817;28;20470;-81
2023/10/07 02:53:37;;;;;;;1.47;0.93;;;13.90;99.90;;;;;;5016049;28;20876;-81
2023/10/07 02:56:16;;;;;;;3.03;0.93;;;13.90;99.90;;;;;;5013207;28;20532;-81
2023/10/07 02:58:51;;;;;;;0.50;0.40;;;13.90;99.90;;;;;;4996360;28;20454;-81
2023/10/07 03:01:25;;;;;;;0.80;0.67;;;13.90;99.90;;;;;;5012606;28;20469;-81
2023/10/07 03:03:52;;;;;;;8.60;1.07;;;13.90;99.90;;;;;;4995592;28;20541;-81
2023/10/07 03:06:19;;;;;;;0.53;0.53;;;13.90;99.90;;;;;;4995239;28;20522;-80
2023/10/07 03:09:00;;;;;;;0.90;0.80;;;13.90;99.90;;;;;;5011317;28;20814;-81
2023/10/07 03:11:39;;;;;;;0.50;0.40;;;13.90;99.90;;;;;;4995877;28;20439;-80
2023/10/07 03:14:12;;;;;;;0.50;0.40;;;14.00;99.90;;;;;;4995685;28;20471;-80
2023/10/07 03:16:45;;;;;;;0.50;0.40;;;14.00;99.90;;;;;;5009450;28;20461;-80
2023/10/07 03:19:21;;;;;;;2.30;2.10;;;14.10;99.90;;;;;;5015463;28;20968;-81
2023/10/07 03:22:09;;;;;;;0.50;0.40;;;14.10;99.90;;;;;;5018864;28;20472;-82
2023/10/07 03:24:48;;;;;;;0.50;0.40;;;14.10;99.90;;;;;;5012469;28;20523;-80
2023/10/07 03:27:25;;;;;;;0.50;0.40;;;14.10;99.90;;;;;;5018139;28;20440;-80
2023/10/07 03:30:00;;;;;;;0.60;0.50;;;14.10;99.90;;;;;;5002279;28;20432;-81
2023/10/07 03:32:53;;;;;;;0.93;0.93;;;14.20;99.90;;;;;;5007017;28;20471;-80
2023/10/07 03:35:35;;;;;;;0.60;0.50;;;14.10;99.90;;;;;;4997609;28;20961;-81
2023/10/07 03:38:08;;;;;;;1.10;1.00;;;14.10;99.90;;;;;;4998388;28;20462;-82
2023/10/07 03:40:38;;;;;;;1.00;0.70;;;14.10;99.90;;;;;;5011538;28;20478;-81
2023/10/07 03:43:08;;;;;;;0.83;0.83;;;14.10;99.90;;;;;;5017043;28;20472;-81
2023/10/07 03:45:39;;;;;;;0.63;0.63;;;14.10;99.90;;;;;;5017516;28;20446;-81
2023/10/07 03:48:22;;;;;;;1.00;1.00;;;14.10;99.90;;;;;;5015357;28;20454;-80
2023/10/07 03:50:59;;;;;;;2.20;1.13;;;14.20;99.90;;;;;;5013465;28;20453;-82
2023/10/07 03:53:31;;;;;;;0.83;0.77;;;14.20;99.90;;;;;;5005477;28;20473;-80
2023/10/07 03:56:06;;;;;;;0.50;0.40;;;14.20;99.90;;;;;;4997664;28;20497;-81
2023/10/07 03:58:36;;;;;;;1.33;1.10;;;14.20;99.90;;;;;;5017183;28;20437;-80
2023/10/07 04:01:11;;;;;;;0.50;0.40;;;14.20;99.90;;;;;;4999733;28;20558;-80
2023/10/07 04:03:46;;;;;;;0.93;0.93;;;14.20;99.90;;;;;;5003773;28;20536;-81
2023/10/07 04:06:13;;;;;;;5.97;5.00;;;14.10;99.90;;;;;;5016819;28;20461;-80
2023/10/07 04:08:40;;;;;;;1.20;1.17;;;14.20;99.90;;;;;;5003807;28;20446;-80
2023/10/07 04:11:16;;;;;;;0.60;0.60;;;14.10;99.90;;;;;;5014972;28;20445;-81
2023/10/07 04:13:45;;;;;;;1.63;1.53;;;14.20;99.90;;;;;;5003217;28;20558;-81
2023/10/07 04:16:23;;;;;;;0.50;0.40;;;14.20;99.90;;;;;;4997102;28;20513;-80
2023/10/07 04:18:50;;;;;;;3.33;3.13;;;14.20;99.90;;;;;;4997026;28;20937;-81
2023/10/07 04:21:17;;;;;;;1.23;1.23;;;14.20;99.90;;;;;;4997036;28;20480;-81
2023/10/07 04:23:45;;;;;;;0.80;0.77;;;14.20;99.90;;;;;;4997111;28;20579;-81
2023/10/07 04:26:19;;;;;;;5.03;1.77;;;14.20;99.90;;;;;;5013027;28;20937;-80
2023/10/07 04:28:49;;;;;;;2.50;1.57;;;14.20;99.90;;;;;;5010908;28;20464;-81
2023/10/07 04:31:17;;;;;;;1.33;1.23;;;14.20;99.90;;;;;;5015325;28;20450;-80
2023/10/07 04:33:48;;;;;;;0.70;0.60;;;14.20;99.90;;;;;;5015013;28;20973;-81
2023/10/07 04:36:17;;;;;;;0.50;0.40;;;14.20;99.90;;;;;;5005839;28;20565;-80
2023/10/07 04:38:53;;;;;;;2.20;0.97;;;14.20;99.90;;;;;;5001552;28;20450;-81
2023/10/07 04:41:36;;;;;;;1.47;1.37;;;14.20;99.90;;;;;;5014725;28;20481;-79
2023/10/07 04:45:00;;;;;;;3.03;2.07;;;14.20;99.90;;;;;;5014791;28;20842;-79
2023/10/07 04:47:29;;;;;;;1.50;1.40;;;14.20;99.90;;;;;;5014691;28;20864;-80
2023/10/07 04:49:59;;;;;;;0.50;0.50;;;14.20;99.90;;;;;;4999402;28;20453;-80
2023/10/07 04:52:27;;;;;;;3.20;1.10;;;14.30;99.90;;;;;;5006904;28;20454;-80
2023/10/07 04:54:53;;;;;;;1.43;1.30;;;14.30;99.90;;;;;;5000528;28;20453;-80
2023/10/07 04:57:39;;;;;;;1.13;1.13;;;14.30;99.90;;;;;;5006228;28;20455;-81
2023/10/07 05:00:17;;;;;;;1.57;1.47;;;14.30;99.90;;;;;;4997864;28;20577;-81
2023/10/07 05:02:43;;;;;;;19.83;1.53;;;14.40;99.90;;;;;;5000186;28;20564;-81
2023/10/07 05:05:13;;;;;;;1.07;0.90;;;14.30;99.90;;;;;;4997095;28;20457;-80
2023/10/07 05:07:39;;;;;;;0.50;0.40;;;14.30;99.90;;;;;;4995083;28;20494;-83
2023/10/07 05:10:08;;;;;;;0.50;0.40;;;14.30;99.90;;;;;;5002837;28;20435;-81
2023/10/07 05:12:35;;;;;;;1.30;0.80;;;14.40;99.90;;;;;;5014201;28;20459;-81
2023/10/07 05:15:05;;;;;;;0.60;0.50;;;14.40;99.90;;;;;;5015151;28;20440;-81
2023/10/07 05:17:36;;;;;;;1.00;0.90;;;14.40;99.90;;;;;;5006138;28;20442;-79
2023/10/07 05:20:24;;;;;;;1.43;1.37;;;14.40;99.90;;;;;;5014257;28;21009;-82
2023/10/07 05:22:49;;;;;;;2.73;1.90;;;14.40;99.90;;;;;;4994507;28;20993;-81
2023/10/07 05:25:16;;;;;;;1.80;1.23;;;14.40;99.90;;;;;;5004080;28;20446;-82
2023/10/07 05:27:44;;;;;;;1.03;0.70;;;14.40;99.90;;;;;;5006369;28;20813;-82
2023/10/07 05:30:12;;;;;;;2.60;1.47;;;14.40;99.90;;;;;;5011261;28;20451;-82
2023/10/07 05:32:41;;;;;;;1.87;1.10;;;14.40;99.90;;;;;;5010511;28;20886;-82
2023/10/07 05:35:08;;;;;;;0.87;0.87;;;14.40;99.90;;;;;;5016451;28;20612;-82
2023/10/07 05:37:36;;;;;;;0.50;0.40;;;14.40;99.90;;;;;;5016496;28;20490;-81
2023/10/07 05:40:04;;;;;;;0.60;0.60;;;14.40;99.90;;;;;;5002338;28;20525;-80
2023/10/07 05:42:33;;;;;;;4.50;1.43;;;14.40;99.90;;;;;;4997009;28;20471;-81
2023/10/07 05:44:59;;;;;;;1.10;1.10;;;14.40;99.90;;;;;;5006442;28;20513;-80
2023/10/07 05:47:26;;;;;;;2.93;2.73;;;14.40;99.90;;;;;;4999214;28;20457;-81
2023/10/07 05:49:55;;;;;;;0.60;0.60;;;14.40;99.90;;;;;;5006532;28;20443;-80
2023/10/07 05:52:22;;;;;;;1.37;1.00;;;14.50;99.90;;;;;;5008574;28;20441;-80
2023/10/07 05:54:50;;;;;;;0.70;0.70;;;14.50;99.90;;;;;;5010109;28;20433;-80
2023/10/07 05:57:17;;;;;;;0.60;0.40;;;14.50;99.90;;;;;;5010042;28;20818;-80
2023/10/07 05:59:44;;;;;;;4.60;4.40;;;14.50;99.90;;;;;;5013743;28;20454;-80
2023/10/07 06:02:14;;;;;;;9.83;0.93;;;14.60;99.90;;;;;;4999010;28;20451;-80
2023/10/07 06:04:44;;;;;;;0.50;0.40;;;14.60;99.90;;;;;;5010833;28;20715;-81
2023/10/07 06:07:13;;;;;;;1.13;0.93;;;14.50;99.90;;;;;;5019678;28;20881;-81
2023/10/07 06:09:41;;;;;;;0.50;0.40;;;14.60;99.90;;;;;;5009290;28;20529;-81
2023/10/07 06:12:09;;;;;;;0.77;0.77;;;14.60;99.90;;;;;;5007888;28;20535;-79
2023/10/07 06:14:36;;;;;;;0.50;0.40;;;14.60;99.90;;;;;;5007944;28;20497;-80
2023/10/07 06:17:06;;;;;;;1.73;1.13;;;14.60;99.90;;;;;;5031541;22;20487;-80
2023/10/07 06:19:34;;;;;;;4.07;1.23;;;14.50;99.90;;;;;;5025905;28;20434;-81
2023/10/07 06:22:11;;;;;;;0.87;0.87;;;14.60;99.90;;;;;;5027744;28;20481;-80
2023/10/07 06:24:40;;;;;;;0.87;0.87;;;14.60;99.90;;;;;;5035399;28;20441;-80
2023/10/07 06:27:11;;;;;;;1.47;1.10;;;14.60;99.90;;;;;;5026963;28;20513;-80
2023/10/07 06:29:43;;;;;;;0.50;0.40;;;14.60;99.90;;;;;;5035467;28;20880;-80
2023/10/07 06:34:59;;;;;;;0.70;0.70;;;14.60;99.90;;;;;;5029703;28;20433;-81
2023/10/07 06:37:28;;;;;;;2.40;2.23;;;14.60;99.90;;;;;;5018972;28;20494;-81
2023/10/07 06:40:11;;;;;;;1.47;1.27;;;14.60;99.90;;;;;;5026950;28;20441;-81
2023/10/07 06:42:40;;;;;;;8.27;2.50;;;14.70;99.90;;;;;;5019019;28;20430;-80
2023/10/07 06:45:10;;;;;;;0.80;0.60;;;14.70;99.90;;;;;;5035421;28;20791;-78
2023/10/07 06:47:38;;;;;;;4.50;1.37;;;14.70;99.90;;;;;;5034657;28;20790;-80
2023/10/07 06:50:05;;;;;;;0.50;0.40;;;14.70;99.90;;;;;;5026653;28;20496;-81
2023/10/07 06:52:33;;;;;;;0.83;0.83;;;14.70;99.90;;;;;;5033297;28;20895;-80
2023/10/07 06:55:02;;;;;;;1.70;1.60;;;14.70;99.90;;;;;;5036399;28;20446;-79
2023/10/07 06:57:29;;;;;;;0.60;0.60;;;14.70;99.90;;;;;;5035751;28;20464;-80
2023/10/07 06:59:56;;;;;;;0.70;0.70;;;14.70;99.90;;;;;;5033007;28;20474;-81
2023/10/07 07:02:34;;;;;;;0.50;0.40;;;14.80;99.90;;;;;;5039183;28;21014;-81
2023/10/07 07:05:10;;;;;;;0.80;0.60;;;14.90;99.90;;;;;;5030102;28;20470;-80
2023/10/07 07:07:38;;;;;;;1.33;0.60;;;14.90;99.90;;;;;;5030459;28;20468;-80
2023/10/07 07:10:08;;;;;;;1.23;1.07;;;14.90;99.90;;;;;;5038674;28;20450;-82
2023/10/07 07:12:35;;;;;;;0.83;0.83;;;14.90;99.90;;;;;;5030230;28;20478;-81
2023/10/07 07:15:05;;;;;;;4.50;1.23;;;15.00;99.90;;;;;;5037903;28;20449;-80
2023/10/07 07:17:43;;;;;;;8.73;2.10;;;15.00;99.90;;;;;;5038788;28;20466;-80
2023/10/07 07:22:58;;;;;;;0.67;0.67;;;15.00;99.90;;;;;;5045930;28;20413;-79
2023/10/07 07:25:36;;;;;;;0.70;0.70;;;15.00;99.90;;;;;;5043537;28;20449;-81
2023/10/07 07:28:04;;;;;;;0.50;0.40;;;15.10;99.90;;;;;;5032892;28;20829;-79
2023/10/07 07:30:31;;;;;;;1.23;0.93;;;15.10;99.90;;;;;;5037017;28;20466;-81
2023/10/07 07:32:59;;;;;;;0.87;0.87;;;15.20;99.90;;;;;;5038852;28;20438;-79
2023/10/07 07:35:38;;;;;;;0.60;0.60;;;15.30;99.90;;;;;;5038585;28;20445;-81
2023/10/07 07:38:11;;;;;;;4.07;3.27;;;15.40;99.90;;;;;;5038685;28;20469;-80
2023/10/07 07:40:42;;;;;;;2.60;0.70;;;15.50;99.90;;;;;;5038962;28;20485;-81
2023/10/07 07:43:09;;;;;;;0.50;0.40;;;15.60;99.90;;;;;;5038907;28;20522;-81
2023/10/07 07:45:36;;;;;;;1.77;1.00;;;15.70;99.90;;;;;;5038429;28;20875;-80
2023/10/07 07:48:06;;;;;;;0.80;0.73;;;15.80;99.90;;;;;;5038408;28;20580;-81
2023/10/07 07:50:35;;;;;;;0.50;0.40;;;15.90;99.90;;;;;;5037993;28;20435;-80
2023/10/07 07:53:06;;;;;;;0.50;0.40;;;15.90;99.90;;;;;;5038048;28;20496;-80
2023/10/07 07:55:34;;;;;;;0.50;0.30;;;16.00;99.90;;;;;;5030299;28;20442;-79
2023/10/07 07:58:03;;;;;;;0.50;0.40;;;16.00;99.90;;;;;;5037684;28;21230;-81
2023/10/07 08:00:31;;;;;;;0.60;0.60;;;16.10;99.90;;;;;;5028396;28;20481;-81
2023/10/07 08:02:59;;;;;;;3.50;3.20;;;16.20;99.90;;;;;;5031188;28;20470;-81
2023/10/07 08:05:28;;;;;;;0.77;0.77;;;16.20;99.90;;;;;;5036538;28;20962;-81
2023/10/07 08:07:56;;;;;;;1.70;0.97;;;16.20;99.90;;;;;;5039309;28;20462;-81
2023/10/07 08:10:23;;;;;;;14.93;1.27;;;16.20;99.90;;;;;;5030000;28;20531;-81
2023/10/07 08:12:50;;;;;;;0.50;0.40;;;16.30;99.90;;;;;;5038290;28;20441;-77
2023/10/07 08:15:23;;;;;;;0.60;0.60;;;16.40;99.90;;;;;;5037835;28;20494;-81
2023/10/07 08:17:52;;;;;;;1.63;1.53;;;16.50;99.90;;;;;;5037346;28;20466;-81
2023/10/07 08:20:23;;;;;;;0.50;0.40;;;16.70;99.90;;;;;;5038026;28;20464;-82
2023/10/07 08:22:52;;;;;;;0.60;0.50;;;16.70;99.90;;;;;;5019914;28;20435;-79
2023/10/07 08:25:26;;;;;;;0.50;0.40;;;16.60;99.90;;;;;;5033966;28;20438;-81
2023/10/07 08:27:55;;;;;;;0.50;0.40;;;16.50;99.90;;;;;;5019143;28;20459;-81
2023/10/07 08:30:37;;;;;;;2.40;2.30;;;16.50;99.90;;;;;;5034298;28;20438;-81
2023/10/07 08:33:06;;;;;;;0.50;0.40;;;16.30;99.90;;;;;;5031667;28;20453;-81
2023/10/07 08:35:34;;;;;;;0.73;0.73;;;16.30;99.90;;;;;;5026615;28;20446;-81
2023/10/07 08:38:19;;;;;;;0.50;0.40;;;16.20;99.90;;;;;;5037767;28;20515;-82
2023/10/07 08:40:52;;;;;;;4.67;1.10;;;16.20;99.90;;;;;;5037232;28;20481;-79
2023/10/07 08:43:32;;;;;;;0.53;0.40;;;16.10;99.90;;;;;;5036961;28;20434;-79
2023/10/07 08:46:03;;;;;;;2.93;1.10;;;16.10;99.90;;;;;;5018645;28;20436;-80
2023/10/07 08:48:36;;;;;;;0.50;0.40;;;16.20;99.90;;;;;;5026071;28;20850;-80
2023/10/07 08:51:10;;;;;;;1.90;1.80;;;16.20;99.90;;;;;;5032260;28;21113;-80
2023/10/07 08:53:37;;;;;;;0.83;0.83;;;16.30;99.90;;;;;;5035502;28;20530;-80
2023/10/07 08:56:08;;;;;;;1.47;1.37;;;16.40;99.90;;;;;;5028875;28;20438;-81
2023/10/07 08:58:40;;;;;;;0.80;0.47;;;16.40;99.90;;;;;;5028171;28;20459;-81
2023/10/07 09:01:17;;;;;;;0.93;0.90;;;16.50;99.90;;;;;;5037099;28;20476;-80
2023/10/07 09:03:47;;;;;;;1.47;1.33;;;16.40;99.90;;;;;;5037221;28;20449;-81
2023/10/07 09:06:14;;;;;;;0.90;0.90;;;16.60;99.90;;;;;;5022204;28;20435;-80
2023/10/07 09:08:43;;;;;;;1.80;1.70;;;17.50;99.90;;;;;;5035495;28;20462;-81
2023/10/07 09:11:14;;;;;;;2.00;1.90;;;17.60;99.90;;;;;;5037327;28;20561;-81
2023/10/07 09:13:42;;;;;;;0.50;0.40;;;17.50;99.90;;;;;;5028097;28;20450;-80
2023/10/07 09:16:12;;;;;;;0.60;0.60;;;17.60;99.90;;;;;;5036654;28;20526;-80
2023/10/07 09:18:41;;;;;;;2.00;1.90;;;18.50;99.90;;;;;;5028067;28;20549;-81
2023/10/07 09:21:11;;;;;;;0.50;0.43;;;19.50;99.90;;;;;;5036537;28;20482;-82
2023/10/07 09:23:43;;;;;;;1.00;0.83;;;20.30;99.90;;;;;;5035575;28;20529;-82
2023/10/07 09:26:21;;;;;;;1.03;0.93;;;21.00;99.90;;;;;;5031287;28;20438;-82
2023/10/07 09:28:51;;;;;;;0.50;0.40;;;21.10;99.90;;;;;;5032827;28;20452;-81
2023/10/07 09:31:23;;;;;;;0.90;0.50;;;21.10;99.90;;;;;;5033331;28;20463;-78
2023/10/07 09:33:50;;;;;;;3.30;1.50;;;20.60;99.90;;;;;;5029706;28;20470;-80
2023/10/07 09:36:33;;;;;;;2.00;1.90;;;20.60;99.90;;;;;;5036269;28;20442;-80
2023/10/07 09:39:16;;;;;;;0.70;0.47;;;20.60;99.90;;;;;;5030131;28;20459;-80
2023/10/07 09:41:44;;;;;;;2.90;2.43;;;20.50;99.90;;;;;;5032012;28;20466;-75
2023/10/07 09:44:26;;;;;;;0.80;0.80;;;20.00;99.90;;;;;;5034122;28;20809;-78
2023/10/07 09:46:53;;;;;;;0.90;0.80;;;20.20;99.90;;;;;;5034628;28;20439;-78
2023/10/07 09:49:21;;;;;;;0.60;0.50;;;20.30;99.90;;;;;;5035292;28;21153;-79
2023/10/07 09:51:50;;;;;;;0.50;0.40;;;20.00;99.90;;;;;;5035203;28;20440;-80
2023/10/07 09:54:36;;;;;;;1.23;1.23;;;19.60;99.90;;;;;;5029370;28;20458;-80
2023/10/07 09:57:20;;;;;;;0.60;0.50;;;19.50;99.90;;;;;;5020657;28;20899;-80
2023/10/07 10:00:16;;;;;;;0.50;0.40;;;19.30;99.90;;;;;;5034690;28;20439;-80
2023/10/07 10:03:03;;;;;;;1.27;1.17;;;19.50;99.90;;;;;;5035130;28;20482;-80
2023/10/07 10:05:47;;;;;;;0.50;0.30;;;20.00;99.90;;;;;;5035040;28;20484;-80
2023/10/07 10:08:44;;;;;;;0.50;0.30;;;20.70;99.90;;;;;;5034917;28;21046;-79
2023/10/07 10:11:30;;;;;;;0.83;0.80;;;21.60;99.90;;;;;;5029925;28;20450;-80
2023/10/07 10:14:14;;;;;;;1.37;1.37;;;21.60;99.90;;;;;;5032198;28;20799;-80
2023/10/07 10:16:45;;;;;;;2.83;2.03;;;21.80;99.90;;;;;;5024756;28;20442;-80
2023/10/07 10:19:23;;;;;;;31.23;28.30;;;21.90;99.90;;;;;;5035842;28;20853;-80
2023/10/07 10:21:51;;;;;;;0.50;0.40;;;21.80;99.90;;;;;;5026761;28;20562;-79
2023/10/07 10:24:23;;;;;;;0.70;0.50;;;22.40;99.90;;;;;;5035059;28;20488;-79
2023/10/07 10:26:50;;;;;;;0.77;0.77;;;22.50;99.90;;;;;;5024279;28;20522;-80
2023/10/07 10:29:25;;;;;;;0.97;0.90;;;22.20;99.90;;;;;;5014622;28;20431;-80
2023/10/07 10:31:58;;;;;;;2.80;0.87;;;22.20;99.90;;;;;;5033843;28;20473;-78
2023/10/07 10:34:26;;;;;;;0.80;0.80;;;22.10;99.90;;;;;;5034409;28;20477;-78
2023/10/07 10:36:56;;;;;;;1.10;1.00;;;22.60;99.90;;;;;;5034386;28;20445;-79
2023/10/07 10:39:25;;;;;;;0.70;0.60;;;22.90;99.90;;;;;;5027765;28;20436;-80
2023/10/07 10:41:53;;;;;;;1.43;1.27;;;22.90;99.90;;;;;;5025522;28;20899;-79
2023/10/07 10:44:20;;;;;;;0.77;0.40;;;23.00;99.90;;;;;;5034889;28;20495;-79
2023/10/07 10:46:49;;;;;;;2.30;1.50;;;23.20;99.90;;;;;;5032922;28;20530;-80
2023/10/07 10:49:17;;;;;;;0.50;0.43;;;23.30;99.90;;;;;;5023702;28;20545;-80
2023/10/07 10:51:48;;;;;;;1.43;1.00;;;23.70;99.90;;;;;;5032893;28;20441;-80
2023/10/07 10:54:16;;;;;;;1.43;1.10;;;24.10;99.90;;;;;;5029304;28;20991;-79
2023/10/07 10:56:50;;;;;;;0.50;0.40;;;23.90;99.90;;;;;;5014845;28;20515;-77
2023/10/07 10:59:18;;;;;;;0.50;0.30;;;23.70;99.90;;;;;;5014955;28;20419;-80
2023/10/07 11:01:49;;;;;;;0.50;0.30;;;24.10;99.90;;;;;;5031364;28;20565;-80
2023/10/07 11:04:19;;;;;;;3.17;1.23;;;24.40;99.90;;;;;;5028790;28;21001;-80
2023/10/07 11:06:50;;;;;;;0.60;0.53;;;24.50;99.90;;;;;;5034275;28;21001;-81
2023/10/07 11:09:25;;;;;;;1.10;1.10;;;24.00;99.90;;;;;;5035472;28;20470;-81
2023/10/07 11:11:54;;;;;;;0.50;0.40;;;24.00;99.90;;;;;;5034931;28;21008;-81
2023/10/07 11:14:23;;;;;;;0.50;0.30;;;23.90;99.90;;;;;;5034826;28;20438;-80
2023/10/07 11:16:51;;;;;;;0.50;0.40;;;24.00;99.90;;;;;;5034864;28;20442;-80
2023/10/07 11:19:19;;;;;;;0.50;0.30;;;24.10;99.90;;;;;;5036459;28;20438;-81
2023/10/07 11:21:49;;;;;;;1.37;0.43;;;24.40;99.90;;;;;;5035215;28;20478;-81
2023/10/07 11:24:27;;;;;;;0.50;0.40;;;24.20;99.90;;;;;;5027018;28;20443;-80
2023/10/07 11:26:56;;;;;;;2.03;1.80;;;23.90;99.90;;;;;;5026597;28;20558;-81
2023/10/07 11:29:29;;;;;;;1.03;0.60;;;23.40;99.90;;;;;;5036738;28;20439;-81
2023/10/07 11:32:01;;;;;;;0.60;0.50;;;23.30;99.90;;;;;;5026146;28;20431;-80
2023/10/07 11:34:37;;;;;;;0.50;0.40;;;23.10;99.90;;;;;;5029646;28;20545;-82
2023/10/07 11:37:10;;;;;;;0.90;0.90;;;23.20;99.90;;;;;;5015615;28;20447;-80
2023/10/07 11:39:48;;;;;;;0.50;0.50;;;22.80;99.90;;;;;;5033495;28;20442;-78
2023/10/07 11:42:16;;;;;;;0.50;0.30;;;22.90;99.90;;;;;;5033800;28;20465;-80
2023/10/07 11:44:46;;;;;;;0.50;0.40;;;22.90;99.90;;;;;;5023762;28;20455;-80
2023/10/07 11:47:16;;;;;;;0.50;0.30;;;23.10;99.90;;;;;;5022730;28;20492;-81
2023/10/07 11:49:43;;;;;;;0.50;0.40;;;23.40;99.90;;;;;;5030201;28;20837;-80
2023/10/07 11:52:11;;;;;;;0.80;0.80;;;23.60;99.90;;;;;;5034496;28;20443;-81
2023/10/07 11:54:38;;;;;;;0.50;0.30;;;24.20;99.90;;;;;;5035158;28;20496;-81
2023/10/07 11:57:06;;;;;;;0.50;0.40;;;25.00;99.90;;;;;;5038049;28;21008;-80
2023/10/07 11:59:35;;;;;;;0.90;0.57;;;25.10;99.90;;;;;;5038305;28;20442;-80
2023/10/07 12:02:09;;;;;;;0.50;0.37;;;25.70;99.90;;;;;;5029672;28;20997;-79
2023/10/07 12:04:38;;;;;;;0.50;0.30;;;25.70;99.90;;;;;;5037903;28;20449;-81
2023/10/07 12:07:06;;;;;;;0.50;0.37;;;25.70;99.90;;;;;;5037416;28;20466;-81
2023/10/07 12:09:37;;;;;;;0.80;0.50;;;25.50;99.90;;;;;;5037881;28;20508;-81
2023/10/07 12:12:06;;;;;;;0.93;0.77;;;25.10;99.90;;;;;;5026826;28;20424;-81
2023/10/07 12:14:33;;;;;;;1.07;0.67;;;24.40;99.90;;;;;;5026284;28;20472;-80
2023/10/07 12:17:01;;;;;;;0.50;0.30;;;24.40;99.90;;;;;;5028395;28;20479;-80
2023/10/07 12:19:30;;;;;;;0.50;0.30;;;24.60;99.90;;;;;;5030467;28;20438;-81
2023/10/07 12:21:58;;;;;;;0.50;0.50;;;24.90;99.90;;;;;;5027754;28;20507;-81
2023/10/07 12:24:26;;;;;;;0.60;0.50;;;25.40;99.90;;;;;;5022993;28;20822;-81
2023/10/07 12:26:56;;;;;;;4.13;0.77;;;25.60;99.90;;;;;;5027563;28;20448;-81
2023/10/07 12:29:24;;;;;;;0.60;0.40;;;25.60;99.90;;;;;;5031527;28;20439;-81
2023/10/07 12:31:51;;;;;;;4.50;1.30;;;25.60;99.90;;;;;;5028087;28;20435;-79
2023/10/07 12:34:19;;;;;;;0.60;0.50;;;25.40;99.90;;;;;;5017664;28;20436;-81
2023/10/07 12:36:46;;;;;;;0.50;0.30;;;24.80;99.90;;;;;;5033563;28;20438;-79
2023/10/07 12:39:15;;;;;;;0.50;0.40;;;24.60;99.90;;;;;;5025835;28;20470;-80
2023/10/07 12:41:42;;;;;;;1.20;1.03;;;24.30;99.90;;;;;;5025311;28;20444;-80
2023/10/07 12:44:11;;;;;;;0.50;0.40;;;24.30;99.90;;;;;;5025346;28;20453;-80
2023/10/07 12:46:39;;;;;;;1.53;1.17;;;24.00;99.90;;;;;;5017310;28;20811;-81
2023/10/07 12:49:10;;;;;;;0.50;0.30;;;24.20;99.90;;;;;;5028146;28;20835;-81
2023/10/07 12:51:38;;;;;;;0.50;0.30;;;24.00;99.90;;;;;;5036675;28;20435;-79
2023/10/07 12:54:08;;;;;;;0.50;0.40;;;23.90;99.90;;;;;;5028390;28;20470;-81
2023/10/07 12:56:37;;;;;;;0.60;0.60;;;23.80;99.90;;;;;;5030384;28;20521;-80
2023/10/07 12:59:07;;;;;;;1.27;1.27;;;24.10;99.90;;;;;;5035086;28;20465;-79
2023/10/07 13:01:36;;;;;;;1.07;0.93;;;24.50;99.90;;;;;;5036628;28;20445;-81
2023/10/07 13:04:03;;;;;;;0.50;0.30;;;24.70;99.90;;;;;;5026254;28;20485;-80
2023/10/07 13:06:32;;;;;;;0.50;0.30;;;25.10;99.90;;;;;;5018011;28;20546;-81
2023/10/07 13:09:03;;;;;;;0.60;0.60;;;25.50;99.90;;;;;;5035153;28;20819;-81
2023/10/07 13:11:30;;;;;;;0.50;0.30;;;25.80;99.90;;;;;;5036549;28;20468;-80
2023/10/07 13:13:57;;;;;;;0.93;0.73;;;26.20;99.90;;;;;;5027583;28;20437;-79